createdAt,value
2018-03-11T00:00:05.425Z,13.9
2018-03-11T00:05:03.703Z,13.43
2018-03-11T00:10:03.180Z,13.24
2018-03-11T00:15:03.657Z,13.05
2018-03-11T00:20:03.236Z,12.86
2018-03-11T00:25:03.718Z,12.48
2018-03-11T00:30:03.190Z,12.29
2018-03-11T00:35:03.710Z,12.19
2018-03-11T00:40:03.170Z,12.29
2018-03-11T00:45:03.666Z,12.29
2018-03-11T00:50:03.206Z,12.38
2018-03-11T00:55:03.658Z,12.38
2018-03-11T01:00:03.091Z,12.38
2018-03-11T01:05:03.283Z,12.38
2018-03-11T01:10:02.882Z,12.29
2018-03-11T01:15:03.486Z,12.57
2018-03-11T01:20:03.037Z,12.86
2018-03-11T01:25:03.452Z,12.67
2018-03-11T01:30:02.895Z,12.38
2018-03-11T01:35:03.717Z,12.48
2018-03-11T01:40:03.318Z,12.19
2018-03-11T01:45:03.746Z,12.28
2018-03-11T01:50:03.295Z,12.47
2018-03-11T01:55:02.782Z,12.47
2018-03-11T02:00:03.298Z,12.47
2018-03-11T02:05:03.761Z,12.09
2018-03-11T02:10:03.341Z,11.9
2018-03-11T02:15:02.805Z,11.71
2018-03-11T02:20:03.274Z,11.61
2018-03-11T02:25:02.792Z,11.61
2018-03-11T02:30:03.339Z,11.71
2018-03-11T02:35:02.984Z,11.71
2018-03-11T02:40:03.506Z,11.32
2018-03-11T02:45:02.948Z,11.23
2018-03-11T02:50:03.439Z,10.85
2018-03-11T02:55:02.932Z,10.85
2018-03-11T03:00:03.444Z,10.56
2018-03-11T03:05:03.174Z,10.47
2018-03-11T03:10:03.712Z,10.18
2018-03-11T03:15:03.137Z,10.18
2018-03-11T03:20:03.654Z,9.99
2018-03-11T03:25:03.102Z,10.08
2018-03-11T03:30:03.657Z,10.18
2018-03-11T03:35:03.134Z,10.28
2018-03-11T03:40:03.729Z,10.28
2018-03-11T03:45:03.251Z,10.28
2018-03-11T03:50:02.763Z,10.17
2018-03-11T03:55:03.264Z,10.17
2018-03-11T04:00:03.862Z,9.99
2018-03-11T04:05:03.421Z,9.89
2018-03-11T04:10:02.973Z,9.99
2018-03-11T04:15:03.508Z,9.89
2018-03-11T04:20:03.022Z,9.89
2018-03-11T04:25:03.527Z,9.8
2018-03-11T04:30:03.143Z,9.7
2018-03-11T04:35:03.649Z,9.51
2018-03-11T04:40:03.180Z,9.51
2018-03-11T04:45:03.692Z,9.42
2018-03-11T04:50:03.188Z,9.32
2018-03-11T04:55:03.727Z,9.22
2018-03-11T05:00:03.168Z,9.22
2018-03-11T05:05:03.751Z,9.13
2018-03-11T05:10:03.303Z,9.03
2018-03-11T05:15:02.787Z,8.94
2018-03-11T05:20:03.364Z,8.94
2018-03-11T05:25:02.860Z,8.84
2018-03-11T05:30:03.578Z,8.84
2018-03-11T05:35:03.209Z,8.84
2018-03-11T05:40:03.759Z,8.94
2018-03-11T05:45:03.235Z,8.94
2018-03-11T05:50:03.148Z,8.84
2018-03-11T05:55:03.622Z,8.84
2018-03-11T06:00:03.096Z,8.75
2018-03-11T06:05:03.509Z,8.75
2018-03-11T06:10:03.049Z,8.75
2018-03-11T06:15:03.541Z,8.56
2018-03-11T06:20:03.095Z,8.56
2018-03-11T06:25:03.604Z,8.47
2018-03-11T06:30:03.037Z,8.47
2018-03-11T06:35:03.564Z,8.47
2018-03-11T06:40:03.035Z,8.18
2018-03-11T06:45:03.541Z,8.08
2018-03-11T06:50:02.961Z,7.99
2018-03-11T06:55:03.436Z,7.99
2018-03-11T07:00:02.917Z,7.71
2018-03-11T07:05:03.405Z,7.61
2018-03-11T07:10:02.947Z,7.51
2018-03-11T07:15:03.433Z,7.32
2018-03-11T07:20:02.943Z,7.32
2018-03-11T07:25:03.511Z,7.23
2018-03-11T07:30:03.433Z,7.42
2018-03-11T07:35:02.927Z,7.62
2018-03-11T07:40:03.445Z,8.18
2018-03-11T07:45:02.848Z,8.86
2018-03-11T07:50:03.352Z,9.43
2018-03-11T07:55:02.858Z,10.19
2018-03-11T08:00:03.600Z,10.48
2018-03-11T08:05:03.173Z,10.19
2018-03-11T08:10:03.780Z,10.48
2018-03-11T08:15:03.252Z,10.19
2018-03-11T08:20:02.758Z,11.34
2018-03-11T08:25:03.251Z,12.77
2018-03-11T08:30:02.810Z,12.68
2018-03-11T08:35:03.319Z,13.06
2018-03-11T08:40:02.890Z,13.82
2018-03-11T08:45:03.447Z,15.35
2018-03-11T08:50:03.089Z,16.97
2018-03-11T08:55:03.637Z,17.17
2018-03-11T09:00:03.143Z,16.69
2018-03-11T09:05:03.899Z,18.32
2018-03-11T09:10:03.506Z,20.7
2018-03-11T09:15:02.959Z,20.33
2018-03-11T09:20:03.473Z,23.77
2018-03-11T09:25:02.972Z,26.73
2018-03-11T09:30:03.497Z,29.22
2018-03-11T09:35:03.004Z,27.7
2018-03-11T09:40:03.635Z,30.35
2018-03-11T09:45:03.162Z,30.64
2018-03-11T09:50:03.648Z,27.97
2018-03-11T09:55:03.127Z,27.2
2018-03-11T10:00:03.649Z,26.25
2018-03-11T10:05:03.244Z,24.72
2018-03-11T10:10:02.804Z,24.53
2018-03-11T10:15:03.240Z,24.72
2018-03-11T10:20:03.730Z,26.92
2018-03-11T10:25:03.222Z,30.26
2018-03-11T10:30:03.780Z,28.16
2018-03-11T10:35:03.238Z,26.82
2018-03-11T10:40:03.817Z,25.1
2018-03-11T10:45:03.346Z,26.54
2018-03-11T10:50:02.835Z,26.82
2018-03-11T10:55:03.232Z,31.79
2018-03-11T11:00:03.707Z,30.35
2018-03-11T11:05:03.228Z,32.55
2018-03-11T11:10:02.783Z,31.5
2018-03-11T11:15:03.199Z,31.79
2018-03-11T11:20:02.840Z,32.84
2018-03-11T11:25:03.287Z,34.09
2018-03-11T11:30:02.826Z,34
2018-03-11T11:35:03.379Z,34.67
2018-03-11T11:40:02.867Z,34.38
2018-03-11T11:45:03.372Z,34.67
2018-03-11T11:50:02.924Z,35.62
2018-03-11T11:55:03.417Z,42.25
2018-03-11T12:00:03.305Z,42.54
2018-03-11T12:05:02.907Z,45.98
2018-03-11T12:10:03.427Z,46.77
2018-03-11T12:15:02.990Z,45.81
2018-03-11T12:20:03.551Z,47.63
2018-03-11T12:25:02.971Z,48.59
2018-03-11T12:30:03.450Z,50.72
2018-03-11T12:35:02.937Z,47.18
2018-03-11T12:40:03.467Z,49.26
2018-03-11T12:45:02.921Z,45.43
2018-03-11T12:50:03.350Z,45.53
2018-03-11T12:55:02.872Z,43.88
2018-03-11T13:00:03.336Z,40.44
2018-03-11T13:05:02.848Z,39.48
2018-03-11T13:10:03.478Z,38.43
2018-03-11T13:15:02.958Z,38.05
2018-03-11T13:20:03.457Z,40.63
2018-03-11T13:25:02.979Z,45.79
2018-03-11T13:30:03.521Z,48.28
2018-03-11T13:35:03.050Z,50.41
2018-03-11T13:40:03.610Z,54.04
2018-03-11T13:45:03.174Z,52.32
2018-03-11T13:50:03.555Z,53.08
2018-03-11T13:55:03.092Z,55.38
2018-03-11T14:00:03.602Z,53.47
2018-03-11T14:05:03.090Z,53.47
2018-03-11T14:10:03.746Z,52.7
2018-03-11T14:15:03.225Z,51.56
2018-03-11T14:20:02.821Z,54.43
2018-03-11T14:25:03.353Z,56.43
2018-03-11T14:30:02.916Z,55.96
2018-03-11T14:35:03.516Z,61.69
2018-03-11T14:40:03.038Z,59.4
2018-03-11T14:45:04.000Z,62.84
2018-03-11T14:50:03.511Z,63.51
2018-03-11T14:55:03.030Z,60.93
2018-03-11T15:00:03.600Z,63.32
2018-03-11T15:05:03.028Z,63.03
2018-03-11T15:10:03.576Z,62.3
2018-03-11T15:15:03.035Z,64.98
2018-03-11T15:20:03.642Z,72.09
2018-03-11T15:25:03.162Z,69.42
2018-03-11T15:30:03.658Z,70.76
2018-03-11T15:35:03.165Z,70.66
2018-03-11T15:40:03.790Z,70.47
2018-03-11T15:45:03.310Z,69.67
2018-03-11T15:50:02.868Z,71.11
2018-03-11T15:55:03.421Z,0
2018-03-11T16:00:02.909Z,0
2018-03-11T16:05:03.515Z,0
2018-03-11T16:10:03.121Z,0
2018-03-11T16:15:03.895Z,0
2018-03-11T16:20:03.707Z,0
2018-03-11T16:25:03.255Z,0
2018-03-11T16:30:03.688Z,0
2018-03-11T16:35:03.205Z,0
2018-03-11T16:40:04.229Z,0
2018-03-11T16:45:02.794Z,0
2018-03-11T16:50:03.342Z,0
2018-03-11T16:55:03.764Z,0
2018-03-11T17:00:03.368Z,0
2018-03-11T17:05:02.944Z,0
2018-03-11T17:10:03.478Z,0
2018-03-11T17:15:02.965Z,0
2018-03-11T17:20:03.578Z,0
2018-03-11T17:25:03.155Z,0
2018-03-11T17:30:03.595Z,0
2018-03-11T17:35:03.102Z,0
2018-03-11T17:40:03.682Z,0
2018-03-11T17:45:03.194Z,0
2018-03-11T17:50:03.763Z,0
2018-03-11T17:55:03.321Z,0
2018-03-11T18:00:02.842Z,0
2018-03-11T18:05:02.804Z,0
2018-03-11T18:10:03.426Z,0
2018-03-11T18:15:02.960Z,0
2018-03-11T18:20:03.545Z,0
2018-03-11T18:25:03.122Z,0
2018-03-11T18:30:03.616Z,0
2018-03-11T18:35:03.089Z,0
2018-03-11T18:40:03.656Z,0
2018-03-11T18:45:03.189Z,0
2018-03-11T18:50:03.718Z,0
2018-03-11T18:55:04.250Z,0
2018-03-11T19:00:04.120Z,0
2018-03-11T19:05:02.784Z,0
2018-03-11T19:10:03.315Z,0
2018-03-11T19:15:02.737Z,0
2018-03-11T19:20:03.368Z,0
2018-03-11T19:25:02.845Z,0
2018-03-11T19:30:03.443Z,0
2018-03-11T19:35:03.292Z,0
2018-03-11T19:40:02.923Z,0
2018-03-11T19:45:03.525Z,0
2018-03-11T19:50:03.024Z,0
2018-03-11T19:55:03.645Z,0
2018-03-11T20:00:04.376Z,0
2018-03-11T20:05:03.286Z,0
2018-03-11T20:10:03.036Z,0
2018-03-11T20:15:04.309Z,0
2018-03-11T20:20:04.881Z,0
2018-03-11T20:25:04.729Z,0
2018-03-11T20:30:03.322Z,0
2018-03-11T20:35:03.117Z,0
2018-03-11T20:40:03.979Z,0
2018-03-11T20:45:03.524Z,0
2018-03-11T20:50:04.065Z,0
2018-03-11T20:55:03.827Z,0
2018-03-11T21:00:03.608Z,0
2018-03-11T21:05:03.183Z,0
2018-03-11T21:10:03.768Z,0
2018-03-11T21:15:03.262Z,0
2018-03-11T21:20:03.746Z,0
2018-03-11T21:25:03.220Z,0
2018-03-11T21:30:03.715Z,0
2018-03-11T21:35:03.299Z,0
2018-03-11T21:40:02.817Z,0
2018-03-11T21:45:03.294Z,0
2018-03-11T21:50:02.790Z,0
2018-03-11T21:55:03.337Z,0
2018-03-11T22:00:02.843Z,0
2018-03-11T22:05:03.732Z,0
2018-03-11T22:10:03.428Z,0
2018-03-11T22:15:02.918Z,0
2018-03-11T22:20:03.450Z,0
2018-03-11T22:25:02.912Z,0
2018-03-11T22:30:03.642Z,0
2018-03-11T22:35:03.106Z,0
2018-03-11T22:40:03.634Z,0
2018-03-11T22:45:03.177Z,0
2018-03-11T22:50:03.703Z,0
2018-03-11T22:55:03.188Z,0
2018-03-11T23:00:03.687Z,0
2018-03-11T23:05:03.143Z,0
2018-03-11T23:10:04.304Z,0
2018-03-11T23:15:02.851Z,0
2018-03-11T23:20:03.357Z,0
2018-03-11T23:25:02.903Z,0
2018-03-11T23:30:03.411Z,0
2018-03-11T23:35:02.957Z,0
2018-03-11T23:40:03.520Z,0
2018-03-11T23:45:03.001Z,0
2018-03-11T23:50:03.516Z,0
2018-03-11T23:55:02.975Z,0
